sensor_id;sensor_type;location;lat;lon;timestamp;temperature;humidity
80676;SHT30;70041;46.088;18.268;2023-07-22T00:00:16;20.37;91.41
80676;SHT30;70041;46.088;18.268;2023-07-22T00:02:42;20.32;91.73
80676;SHT30;70041;46.088;18.268;2023-07-22T00:05:08;20.39;91.61
80676;SHT30;70041;46.088;18.268;2023-07-22T00:07:35;20.39;91.24
80676;SHT30;70041;46.088;18.268;2023-07-22T00:10:01;20.34;91.16
80676;SHT30;70041;46.088;18.268;2023-07-22T00:12:26;20.35;91.46
80676;SHT30;70041;46.088;18.268;2023-07-22T00:14:52;20.42;91.69
80676;SHT30;70041;46.088;18.268;2023-07-22T00:17:18;20.39;91.08
80676;SHT30;70041;46.088;18.268;2023-07-22T00:19:44;20.45;90.96
80676;SHT30;70041;46.088;18.268;2023-07-22T00:22:09;20.44;91.48
80676;SHT30;70041;46.088;18.268;2023-07-22T00:24:35;20.45;90.91
80676;SHT30;70041;46.088;18.268;2023-07-22T00:27:00;20.53;91.02
80676;SHT30;70041;46.088;18.268;2023-07-22T00:29:26;20.49;90.69
80676;SHT30;70041;46.088;18.268;2023-07-22T00:31:51;20.48;90.71
80676;SHT30;70041;46.088;18.268;2023-07-22T00:34:16;20.47;90.53
80676;SHT30;70041;46.088;18.268;2023-07-22T00:36:42;20.51;90.79
80676;SHT30;70041;46.088;18.268;2023-07-22T00:39:09;20.49;90.71
80676;SHT30;70041;46.088;18.268;2023-07-22T00:41:34;20.51;90.66
80676;SHT30;70041;46.088;18.268;2023-07-22T00:44:00;20.55;90.21
80676;SHT30;70041;46.088;18.268;2023-07-22T00:46:25;20.48;91.62
80676;SHT30;70041;46.088;18.268;2023-07-22T00:48:50;20.51;91.60
80676;SHT30;70041;46.088;18.268;2023-07-22T00:51:17;20.51;91.76
80676;SHT30;70041;46.088;18.268;2023-07-22T00:53:43;20.58;91.24
80676;SHT30;70041;46.088;18.268;2023-07-22T00:56:08;20.59;89.73
80676;SHT30;70041;46.088;18.268;2023-07-22T00:58:34;20.64;89.11
80676;SHT30;70041;46.088;18.268;2023-07-22T01:00:59;20.68;89.95
80676;SHT30;70041;46.088;18.268;2023-07-22T01:03:25;20.71;89.15
80676;SHT30;70041;46.088;18.268;2023-07-22T01:05:53;20.75;89.12
80676;SHT30;70041;46.088;18.268;2023-07-22T01:08:20;20.72;89.21
80676;SHT30;70041;46.088;18.268;2023-07-22T01:10:46;20.71;90.14
80676;SHT30;70041;46.088;18.268;2023-07-22T01:13:11;20.64;90.11
80676;SHT30;70041;46.088;18.268;2023-07-22T01:15:37;20.56;90.55
80676;SHT30;70041;46.088;18.268;2023-07-22T01:18:03;20.65;90.50
80676;SHT30;70041;46.088;18.268;2023-07-22T01:20:29;20.72;90.00
80676;SHT30;70041;46.088;18.268;2023-07-22T01:22:55;20.62;90.04
80676;SHT30;70041;46.088;18.268;2023-07-22T01:25:21;20.38;90.88
80676;SHT30;70041;46.088;18.268;2023-07-22T01:27:52;20.41;90.98
80676;SHT30;70041;46.088;18.268;2023-07-22T01:30:18;20.34;91.55
80676;SHT30;70041;46.088;18.268;2023-07-22T01:32:45;20.21;91.63
80676;SHT30;70041;46.088;18.268;2023-07-22T01:35:10;20.14;91.81
80676;SHT30;70041;46.088;18.268;2023-07-22T01:37:36;20.14;91.94
80676;SHT30;70041;46.088;18.268;2023-07-22T01:40:02;20.15;92.04
80676;SHT30;70041;46.088;18.268;2023-07-22T01:42:40;20.21;92.05
80676;SHT30;70041;46.088;18.268;2023-07-22T01:45:06;20.27;92.13
80676;SHT30;70041;46.088;18.268;2023-07-22T01:47:35;20.31;92.01
80676;SHT30;70041;46.088;18.268;2023-07-22T01:50:02;20.37;91.58
80676;SHT30;70041;46.088;18.268;2023-07-22T01:52:28;20.29;91.87
80676;SHT30;70041;46.088;18.268;2023-07-22T01:54:53;20.27;92.20
80676;SHT30;70041;46.088;18.268;2023-07-22T01:57:19;20.20;92.33
80676;SHT30;70041;46.088;18.268;2023-07-22T01:59:44;20.17;91.37
80676;SHT30;70041;46.088;18.268;2023-07-22T02:02:10;20.21;91.06
80676;SHT30;70041;46.088;18.268;2023-07-22T02:04:35;20.25;91.20
80676;SHT30;70041;46.088;18.268;2023-07-22T02:07:01;20.20;91.20
80676;SHT30;70041;46.088;18.268;2023-07-22T02:09:27;20.14;91.33
80676;SHT30;70041;46.088;18.268;2023-07-22T02:11:52;20.11;91.61
80676;SHT30;70041;46.088;18.268;2023-07-22T02:14:19;20.17;91.63
80676;SHT30;70041;46.088;18.268;2023-07-22T02:16:44;20.18;91.84
80676;SHT30;70041;46.088;18.268;2023-07-22T02:19:10;20.13;91.84
80676;SHT30;70041;46.088;18.268;2023-07-22T02:21:35;20.08;91.85
80676;SHT30;70041;46.088;18.268;2023-07-22T02:24:01;20.01;92.11
80676;SHT30;70041;46.088;18.268;2023-07-22T02:26:27;19.94;92.32
80676;SHT30;70041;46.088;18.268;2023-07-22T02:28:52;19.94;92.37
80676;SHT30;70041;46.088;18.268;2023-07-22T02:31:17;19.96;92.61
80676;SHT30;70041;46.088;18.268;2023-07-22T02:33:43;19.93;92.98
80676;SHT30;70041;46.088;18.268;2023-07-22T02:36:08;19.83;93.09
80676;SHT30;70041;46.088;18.268;2023-07-22T02:38:34;19.86;93.22
80676;SHT30;70041;46.088;18.268;2023-07-22T02:41:03;19.84;92.80
80676;SHT30;70041;46.088;18.268;2023-07-22T02:43:31;19.83;92.57
80676;SHT30;70041;46.088;18.268;2023-07-22T02:45:56;19.76;92.96
80676;SHT30;70041;46.088;18.268;2023-07-22T02:48:21;19.64;93.46
80676;SHT30;70041;46.088;18.268;2023-07-22T02:50:47;19.71;93.58
80676;SHT30;70041;46.088;18.268;2023-07-22T02:53:12;19.77;92.98
80676;SHT30;70041;46.088;18.268;2023-07-22T02:55:37;19.83;92.62
80676;SHT30;70041;46.088;18.268;2023-07-22T02:58:03;19.81;92.27
80676;SHT30;70041;46.088;18.268;2023-07-22T03:00:28;19.77;92.29
80676;SHT30;70041;46.088;18.268;2023-07-22T03:02:55;19.74;92.64
80676;SHT30;70041;46.088;18.268;2023-07-22T03:05:27;19.67;92.90
80676;SHT30;70041;46.088;18.268;2023-07-22T03:07:53;19.67;93.08
80676;SHT30;70041;46.088;18.268;2023-07-22T03:10:19;19.66;93.05
80676;SHT30;70041;46.088;18.268;2023-07-22T03:12:44;19.64;93.43
80676;SHT30;70041;46.088;18.268;2023-07-22T03:15:10;19.59;93.42
80676;SHT30;70041;46.088;18.268;2023-07-22T03:17:39;19.56;93.58
80676;SHT30;70041;46.088;18.268;2023-07-22T03:20:28;19.62;93.64
80676;SHT30;70041;46.088;18.268;2023-07-22T03:22:53;19.59;93.60
80676;SHT30;70041;46.088;18.268;2023-07-22T03:25:20;19.62;93.39
80676;SHT30;70041;46.088;18.268;2023-07-22T03:27:45;19.59;93.36
80676;SHT30;70041;46.088;18.268;2023-07-22T03:30:13;19.52;93.70
80676;SHT30;70041;46.088;18.268;2023-07-22T03:32:42;19.49;93.67
80676;SHT30;70041;46.088;18.268;2023-07-22T03:35:08;19.60;93.62
80676;SHT30;70041;46.088;18.268;2023-07-22T03:37:37;19.60;93.19
80676;SHT30;70041;46.088;18.268;2023-07-22T03:40:04;19.56;93.37
80676;SHT30;70041;46.088;18.268;2023-07-22T03:42:36;19.50;93.57
80676;SHT30;70041;46.088;18.268;2023-07-22T03:45:01;19.53;93.60
80676;SHT30;70041;46.088;18.268;2023-07-22T03:47:27;19.52;93.61
80676;SHT30;70041;46.088;18.268;2023-07-22T03:49:52;19.60;93.40
80676;SHT30;70041;46.088;18.268;2023-07-22T03:52:19;19.57;93.63
80676;SHT30;70041;46.088;18.268;2023-07-22T03:54:44;19.62;93.53
80676;SHT30;70041;46.088;18.268;2023-07-22T03:57:10;19.67;93.01
80676;SHT30;70041;46.088;18.268;2023-07-22T03:59:35;19.60;92.61
80676;SHT30;70041;46.088;18.268;2023-07-22T04:02:01;19.63;92.60
80676;SHT30;70041;46.088;18.268;2023-07-22T04:04:27;19.66;92.87
80676;SHT30;70041;46.088;18.268;2023-07-22T04:06:53;19.70;92.53
80676;SHT30;70041;46.088;18.268;2023-07-22T04:09:19;19.66;92.40
80676;SHT30;70041;46.088;18.268;2023-07-22T04:11:44;19.69;92.33
80676;SHT30;70041;46.088;18.268;2023-07-22T04:14:10;19.70;92.60
80676;SHT30;70041;46.088;18.268;2023-07-22T04:16:38;19.73;91.50
80676;SHT30;70041;46.088;18.268;2023-07-22T04:19:03;19.83;91.13
80676;SHT30;70041;46.088;18.268;2023-07-22T04:21:29;20.04;91.14
80676;SHT30;70041;46.088;18.268;2023-07-22T04:23:54;19.97;91.43
80676;SHT30;70041;46.088;18.268;2023-07-22T04:26:20;20.01;91.58
80676;SHT30;70041;46.088;18.268;2023-07-22T04:28:45;20.04;91.47
80676;SHT30;70041;46.088;18.268;2023-07-22T04:31:11;20.08;92.05
80676;SHT30;70041;46.088;18.268;2023-07-22T04:33:36;20.08;91.27
80676;SHT30;70041;46.088;18.268;2023-07-22T04:36:02;20.14;91.05
80676;SHT30;70041;46.088;18.268;2023-07-22T04:38:27;20.20;90.31
80676;SHT30;70041;46.088;18.268;2023-07-22T04:40:53;20.27;91.28
80676;SHT30;70041;46.088;18.268;2023-07-22T04:43:18;20.35;89.57
80676;SHT30;70041;46.088;18.268;2023-07-22T04:45:45;20.51;90.49
80676;SHT30;70041;46.088;18.268;2023-07-22T04:48:14;20.64;90.46
80676;SHT30;70041;46.088;18.268;2023-07-22T04:50:41;20.69;89.90
80676;SHT30;70041;46.088;18.268;2023-07-22T04:53:09;20.75;90.28
80676;SHT30;70041;46.088;18.268;2023-07-22T04:55:35;20.75;88.61
80676;SHT30;70041;46.088;18.268;2023-07-22T04:58:02;20.75;89.74
80676;SHT30;70041;46.088;18.268;2023-07-22T05:00:27;20.59;89.99
80676;SHT30;70041;46.088;18.268;2023-07-22T05:02:54;20.53;90.08
80676;SHT30;70041;46.088;18.268;2023-07-22T05:05:21;20.51;90.34
80676;SHT30;70041;46.088;18.268;2023-07-22T05:07:47;20.59;89.52
80676;SHT30;70041;46.088;18.268;2023-07-22T05:10:15;20.49;89.77
80676;SHT30;70041;46.088;18.268;2023-07-22T05:12:43;20.53;90.72
80676;SHT30;70041;46.088;18.268;2023-07-22T05:15:15;20.55;90.46
80676;SHT30;70041;46.088;18.268;2023-07-22T05:17:41;20.56;87.99
80676;SHT30;70041;46.088;18.268;2023-07-22T05:20:06;20.61;88.91
80676;SHT30;70041;46.088;18.268;2023-07-22T05:22:35;20.71;89.78
80676;SHT30;70041;46.088;18.268;2023-07-22T05:25:01;20.75;89.07
80676;SHT30;70041;46.088;18.268;2023-07-22T05:27:26;20.69;87.51
80676;SHT30;70041;46.088;18.268;2023-07-22T05:29:52;20.72;87.64
80676;SHT30;70041;46.088;18.268;2023-07-22T05:32:17;20.79;86.91
80676;SHT30;70041;46.088;18.268;2023-07-22T05:34:43;20.79;87.07
80676;SHT30;70041;46.088;18.268;2023-07-22T05:37:08;20.75;87.60
80676;SHT30;70041;46.088;18.268;2023-07-22T05:39:33;20.68;87.16
80676;SHT30;70041;46.088;18.268;2023-07-22T05:41:59;20.61;86.44
80676;SHT30;70041;46.088;18.268;2023-07-22T05:44:24;20.62;86.48
80676;SHT30;70041;46.088;18.268;2023-07-22T05:46:50;20.62;85.61
80676;SHT30;70041;46.088;18.268;2023-07-22T05:49:15;20.56;85.78
80676;SHT30;70041;46.088;18.268;2023-07-22T05:51:41;20.64;84.35
80676;SHT30;70041;46.088;18.268;2023-07-22T05:54:06;20.59;85.08
80676;SHT30;70041;46.088;18.268;2023-07-22T05:56:32;20.58;85.93
80676;SHT30;70041;46.088;18.268;2023-07-22T05:58:57;20.65;84.08
80676;SHT30;70041;46.088;18.268;2023-07-22T06:01:26;20.64;82.92
80676;SHT30;70041;46.088;18.268;2023-07-22T06:03:52;20.73;82.69
80676;SHT30;70041;46.088;18.268;2023-07-22T06:06:17;20.86;81.86
80676;SHT30;70041;46.088;18.268;2023-07-22T06:08:44;20.85;82.18
80676;SHT30;70041;46.088;18.268;2023-07-22T06:11:09;20.89;82.09
80676;SHT30;70041;46.088;18.268;2023-07-22T06:13:35;20.89;82.28
80676;SHT30;70041;46.088;18.268;2023-07-22T06:16:01;20.93;82.20
80676;SHT30;70041;46.088;18.268;2023-07-22T06:18:26;20.99;81.33
80676;SHT30;70041;46.088;18.268;2023-07-22T06:20:51;21.04;81.05
80676;SHT30;70041;46.088;18.268;2023-07-22T06:23:17;21.13;80.83
80676;SHT30;70041;46.088;18.268;2023-07-22T06:25:43;21.14;79.97
80676;SHT30;70041;46.088;18.268;2023-07-22T06:28:08;21.26;81.11
80676;SHT30;70041;46.088;18.268;2023-07-22T06:30:34;21.37;79.60
80676;SHT30;70041;46.088;18.268;2023-07-22T06:32:59;21.37;77.38
80676;SHT30;70041;46.088;18.268;2023-07-22T06:35:25;21.31;75.97
80676;SHT30;70041;46.088;18.268;2023-07-22T06:37:50;21.47;76.67
80676;SHT30;70041;46.088;18.268;2023-07-22T06:40:17;21.55;78.38
80676;SHT30;70041;46.088;18.268;2023-07-22T06:42:42;21.68;75.25
80676;SHT30;70041;46.088;18.268;2023-07-22T06:45:08;21.88;74.57
80676;SHT30;70041;46.088;18.268;2023-07-22T06:47:34;22.15;73.39
80676;SHT30;70041;46.088;18.268;2023-07-22T06:50:00;22.22;75.91
80676;SHT30;70041;46.088;18.268;2023-07-22T06:52:25;22.42;69.87
80676;SHT30;70041;46.088;18.268;2023-07-22T06:54:51;22.41;70.88
80676;SHT30;70041;46.088;18.268;2023-07-22T06:57:16;22.46;70.26
80676;SHT30;70041;46.088;18.268;2023-07-22T06:59:42;22.45;70.19
80676;SHT30;70041;46.088;18.268;2023-07-22T07:02:08;22.49;70.00
80676;SHT30;70041;46.088;18.268;2023-07-22T07:04:34;22.39;69.07
80676;SHT30;70041;46.088;18.268;2023-07-22T07:06:59;22.31;69.46
80676;SHT30;70041;46.088;18.268;2023-07-22T07:09:25;22.33;69.47
80676;SHT30;70041;46.088;18.268;2023-07-22T07:11:50;22.52;68.99
80676;SHT30;70041;46.088;18.268;2023-07-22T07:14:17;22.52;68.95
80676;SHT30;70041;46.088;18.268;2023-07-22T07:16:43;22.64;67.22
80676;SHT30;70041;46.088;18.268;2023-07-22T07:19:09;22.60;67.12
80676;SHT30;70041;46.088;18.268;2023-07-22T07:21:34;22.64;66.47
80676;SHT30;70041;46.088;18.268;2023-07-22T07:23:59;22.63;67.73
80676;SHT30;70041;46.088;18.268;2023-07-22T07:26:25;22.73;69.11
80676;SHT30;70041;46.088;18.268;2023-07-22T07:28:51;22.86;70.27
80676;SHT30;70041;46.088;18.268;2023-07-22T07:31:17;23.03;64.33
80676;SHT30;70041;46.088;18.268;2023-07-22T07:33:42;23.14;64.27
80676;SHT30;70041;46.088;18.268;2023-07-22T07:36:08;23.24;66.27
80676;SHT30;70041;46.088;18.268;2023-07-22T07:38:33;23.37;68.11
80676;SHT30;70041;46.088;18.268;2023-07-22T07:41:02;23.34;63.37
80676;SHT30;70041;46.088;18.268;2023-07-22T07:43:28;23.25;64.08
80676;SHT30;70041;46.088;18.268;2023-07-22T07:46:22;23.28;63.33
80676;SHT30;70041;46.088;18.268;2023-07-22T07:48:58;23.24;64.20
80676;SHT30;70041;46.088;18.268;2023-07-22T07:51:26;23.18;64.74
80676;SHT30;70041;46.088;18.268;2023-07-22T07:53:52;23.24;64.31
80676;SHT30;70041;46.088;18.268;2023-07-22T07:56:19;23.23;65.31
80676;SHT30;70041;46.088;18.268;2023-07-22T07:58:45;23.28;65.52
80676;SHT30;70041;46.088;18.268;2023-07-22T08:01:11;23.33;65.01
80676;SHT30;70041;46.088;18.268;2023-07-22T08:03:38;23.40;65.14
80676;SHT30;70041;46.088;18.268;2023-07-22T08:06:03;23.47;66.16
80676;SHT30;70041;46.088;18.268;2023-07-22T08:08:29;23.57;65.92
80676;SHT30;70041;46.088;18.268;2023-07-22T08:10:59;23.65;63.17
80676;SHT30;70041;46.088;18.268;2023-07-22T08:13:31;23.64;63.32
80676;SHT30;70041;46.088;18.268;2023-07-22T08:15:59;23.69;64.35
80676;SHT30;70041;46.088;18.268;2023-07-22T08:18:26;23.71;66.44
80676;SHT30;70041;46.088;18.268;2023-07-22T08:20:53;23.81;64.27
80676;SHT30;70041;46.088;18.268;2023-07-22T08:23:19;23.81;64.21
80676;SHT30;70041;46.088;18.268;2023-07-22T08:25:45;23.88;64.11
80676;SHT30;70041;46.088;18.268;2023-07-22T08:28:10;23.92;63.72
80676;SHT30;70041;46.088;18.268;2023-07-22T08:30:36;23.95;63.75
80676;SHT30;70041;46.088;18.268;2023-07-22T08:33:02;24.01;63.87
80676;SHT30;70041;46.088;18.268;2023-07-22T08:35:27;24.08;63.57
80676;SHT30;70041;46.088;18.268;2023-07-22T08:37:52;24.05;62.70
80676;SHT30;70041;46.088;18.268;2023-07-22T08:40:19;24.15;63.08
80676;SHT30;70041;46.088;18.268;2023-07-22T08:42:45;24.26;62.52
80676;SHT30;70041;46.088;18.268;2023-07-22T08:45:11;24.40;61.74
80676;SHT30;70041;46.088;18.268;2023-07-22T08:47:47;24.32;61.34
80676;SHT30;70041;46.088;18.268;2023-07-22T08:50:16;24.41;62.21
80676;SHT30;70041;46.088;18.268;2023-07-22T08:52:45;24.41;61.01
80676;SHT30;70041;46.088;18.268;2023-07-22T08:55:12;24.47;61.49
80676;SHT30;70041;46.088;18.268;2023-07-22T08:57:38;24.56;60.33
80676;SHT30;70041;46.088;18.268;2023-07-22T09:00:07;24.57;61.16
80676;SHT30;70041;46.088;18.268;2023-07-22T09:02:38;24.66;62.02
80676;SHT30;70041;46.088;18.268;2023-07-22T09:05:05;24.77;58.52
80676;SHT30;70041;46.088;18.268;2023-07-22T09:07:31;24.88;59.95
80676;SHT30;70041;46.088;18.268;2023-07-22T09:09:56;24.99;62.05
80676;SHT30;70041;46.088;18.268;2023-07-22T09:12:22;25.12;61.12
80676;SHT30;70041;46.088;18.268;2023-07-22T09:14:49;25.15;58.62
80676;SHT30;70041;46.088;18.268;2023-07-22T09:17:15;25.18;59.63
80676;SHT30;70041;46.088;18.268;2023-07-22T09:19:40;25.21;57.96
80676;SHT30;70041;46.088;18.268;2023-07-22T09:22:07;25.11;58.05
80676;SHT30;70041;46.088;18.268;2023-07-22T09:24:33;25.14;58.71
80676;SHT30;70041;46.088;18.268;2023-07-22T09:26:58;25.18;57.24
80676;SHT30;70041;46.088;18.268;2023-07-22T09:29:35;25.22;57.80
80676;SHT30;70041;46.088;18.268;2023-07-22T09:32:00;25.24;57.99
80676;SHT30;70041;46.088;18.268;2023-07-22T09:34:27;25.27;58.46
80676;SHT30;70041;46.088;18.268;2023-07-22T09:36:57;25.34;57.08
80676;SHT30;70041;46.088;18.268;2023-07-22T09:39:25;25.46;55.87
80676;SHT30;70041;46.088;18.268;2023-07-22T09:41:51;25.49;54.08
80676;SHT30;70041;46.088;18.268;2023-07-22T09:44:18;25.59;58.97
80676;SHT30;70041;46.088;18.268;2023-07-22T09:46:49;25.76;55.41
80676;SHT30;70041;46.088;18.268;2023-07-22T09:49:16;25.78;53.81
80676;SHT30;70041;46.088;18.268;2023-07-22T09:51:42;25.75;53.32
80676;SHT30;70041;46.088;18.268;2023-07-22T09:54:09;25.80;55.05
80676;SHT30;70041;46.088;18.268;2023-07-22T09:56:49;25.88;52.77
80676;SHT30;70041;46.088;18.268;2023-07-22T09:59:17;25.94;51.91
80676;SHT30;70041;46.088;18.268;2023-07-22T10:01:44;25.99;50.53
80676;SHT30;70041;46.088;18.268;2023-07-22T10:04:15;26.04;50.95
80676;SHT30;70041;46.088;18.268;2023-07-22T10:06:42;26.17;51.14
80676;SHT30;70041;46.088;18.268;2023-07-22T10:09:10;26.24;51.57
80676;SHT30;70041;46.088;18.268;2023-07-22T10:11:37;26.30;50.97
80676;SHT30;70041;46.088;18.268;2023-07-22T10:14:03;26.33;50.10
80676;SHT30;70041;46.088;18.268;2023-07-22T10:16:29;26.33;49.76
80676;SHT30;70041;46.088;18.268;2023-07-22T10:18:56;26.37;49.74
80676;SHT30;70041;46.088;18.268;2023-07-22T10:21:23;26.48;49.07
80676;SHT30;70041;46.088;18.268;2023-07-22T10:23:49;26.54;50.64
80676;SHT30;70041;46.088;18.268;2023-07-22T10:26:19;26.65;49.09
80676;SHT30;70041;46.088;18.268;2023-07-22T10:28:46;26.65;49.60
80676;SHT30;70041;46.088;18.268;2023-07-22T10:31:15;26.75;48.75
80676;SHT30;70041;46.088;18.268;2023-07-22T10:33:47;26.80;48.12
80676;SHT30;70041;46.088;18.268;2023-07-22T10:36:15;26.82;47.43
80676;SHT30;70041;46.088;18.268;2023-07-22T10:38:44;26.95;49.19
80676;SHT30;70041;46.088;18.268;2023-07-22T10:41:14;27.11;48.76
80676;SHT30;70041;46.088;18.268;2023-07-22T10:43:42;27.02;47.29
80676;SHT30;70041;46.088;18.268;2023-07-22T10:46:12;27.67;46.81
80676;SHT30;70041;46.088;18.268;2023-07-22T10:48:39;28.48;46.39
80676;SHT30;70041;46.088;18.268;2023-07-22T10:51:11;29.61;45.20
80676;SHT30;70041;46.088;18.268;2023-07-22T10:54:03;30.28;39.90
80676;SHT30;70041;46.088;18.268;2023-07-22T10:56:35;30.69;42.00
80676;SHT30;70041;46.088;18.268;2023-07-22T10:59:01;31.17;40.08
80676;SHT30;70041;46.088;18.268;2023-07-22T11:14:29;31.47;40.03
80676;SHT30;70041;46.088;18.268;2023-07-22T11:17:00;30.65;44.38
80676;SHT30;70041;46.088;18.268;2023-07-22T11:19:26;30.45;40.29
80676;SHT30;70041;46.088;18.268;2023-07-22T11:21:53;30.09;42.51
80676;SHT30;70041;46.088;18.268;2023-07-22T11:24:21;29.80;41.09
80676;SHT30;70041;46.088;18.268;2023-07-22T11:26:48;29.45;43.02
80676;SHT30;70041;46.088;18.268;2023-07-22T11:29:14;29.38;40.91
80676;SHT30;70041;46.088;18.268;2023-07-22T11:31:48;29.37;43.24
80676;SHT30;70041;46.088;18.268;2023-07-22T11:34:16;29.09;42.87
80676;SHT30;70041;46.088;18.268;2023-07-22T11:36:42;28.79;45.23
80676;SHT30;70041;46.088;18.268;2023-07-22T11:39:13;28.91;46.51
80676;SHT30;70041;46.088;18.268;2023-07-22T11:41:39;29.02;44.13
80676;SHT30;70041;46.088;18.268;2023-07-22T11:44:07;29.02;43.51
80676;SHT30;70041;46.088;18.268;2023-07-22T11:46:35;28.71;42.72
80676;SHT30;70041;46.088;18.268;2023-07-22T11:49:02;28.31;48.18
80676;SHT30;70041;46.088;18.268;2023-07-22T11:51:28;28.03;45.15
80676;SHT30;70041;46.088;18.268;2023-07-22T11:53:55;27.96;44.94
80676;SHT30;70041;46.088;18.268;2023-07-22T11:56:22;28.24;47.33
80676;SHT30;70041;46.088;18.268;2023-07-22T11:58:50;28.51;43.43
80676;SHT30;70041;46.088;18.268;2023-07-22T12:01:15;29.03;44.03
80676;SHT30;70041;46.088;18.268;2023-07-22T12:03:41;29.31;43.07
80676;SHT30;70041;46.088;18.268;2023-07-22T12:06:06;29.46;40.22
80676;SHT30;70041;46.088;18.268;2023-07-22T12:08:33;29.43;40.92
80676;SHT30;70041;46.088;18.268;2023-07-22T12:10:59;29.12;41.61
80676;SHT30;70041;46.088;18.268;2023-07-22T12:13:24;28.85;46.49
80676;SHT30;70041;46.088;18.268;2023-07-22T12:16:03;28.59;44.65
80676;SHT30;70041;46.088;18.268;2023-07-22T12:18:46;29.03;44.19
80676;SHT30;70041;46.088;18.268;2023-07-22T12:21:13;29.76;43.08
80676;SHT30;70041;46.088;18.268;2023-07-22T12:23:39;30.90;41.11
80676;SHT30;70041;46.088;18.268;2023-07-22T12:26:05;32.18;35.77
80676;SHT30;70041;46.088;18.268;2023-07-22T12:28:31;31.78;37.91
80676;SHT30;70041;46.088;18.268;2023-07-22T12:30:57;32.22;38.17
80676;SHT30;70041;46.088;18.268;2023-07-22T12:33:23;32.83;35.89
80676;SHT30;70041;46.088;18.268;2023-07-22T12:35:49;31.96;37.29
80676;SHT30;70041;46.088;18.268;2023-07-22T12:38:15;30.63;37.38
80676;SHT30;70041;46.088;18.268;2023-07-22T12:40:40;30.17;39.61
80676;SHT30;70041;46.088;18.268;2023-07-22T12:43:06;30.25;40.66
80676;SHT30;70041;46.088;18.268;2023-07-22T12:45:31;29.66;40.69
80676;SHT30;70041;46.088;18.268;2023-07-22T12:47:57;29.34;41.10
80676;SHT30;70041;46.088;18.268;2023-07-22T12:50:22;29.02;40.62
80676;SHT30;70041;46.088;18.268;2023-07-22T12:52:48;31.45;38.76
80676;SHT30;70041;46.088;18.268;2023-07-22T12:55:13;33.51;33.00
80676;SHT30;70041;46.088;18.268;2023-07-22T12:57:38;34.33;35.66
80676;SHT30;70041;46.088;18.268;2023-07-22T13:00:04;34.25;31.81
80676;SHT30;70041;46.088;18.268;2023-07-22T13:02:36;33.65;32.87
80676;SHT30;70041;46.088;18.268;2023-07-22T13:05:01;33.50;34.87
80676;SHT30;70041;46.088;18.268;2023-07-22T13:07:27;34.25;35.45
80676;SHT30;70041;46.088;18.268;2023-07-22T13:09:52;34.45;31.44
80676;SHT30;70041;46.088;18.268;2023-07-22T13:12:21;35.45;29.65
80676;SHT30;70041;46.088;18.268;2023-07-22T13:14:47;36.25;32.80
80676;SHT30;70041;46.088;18.268;2023-07-22T13:17:12;35.71;31.86
80676;SHT30;70041;46.088;18.268;2023-07-22T13:19:38;36.06;32.62
80676;SHT30;70041;46.088;18.268;2023-07-22T13:22:03;36.37;28.64
80676;SHT30;70041;46.088;18.268;2023-07-22T13:24:29;37.37;26.98
80676;SHT30;70041;46.088;18.268;2023-07-22T13:26:55;37.76;27.10
80676;SHT30;70041;46.088;18.268;2023-07-22T13:29:20;37.82;25.24
80676;SHT30;70041;46.088;18.268;2023-07-22T13:31:46;38.15;28.70
80676;SHT30;70041;46.088;18.268;2023-07-22T13:34:11;37.62;27.19
80676;SHT30;70041;46.088;18.268;2023-07-22T13:36:37;37.51;27.21
80676;SHT30;70041;46.088;18.268;2023-07-22T13:39:02;38.24;27.12
80676;SHT30;70041;46.088;18.268;2023-07-22T13:41:28;38.67;27.65
80676;SHT30;70041;46.088;18.268;2023-07-22T13:43:53;38.59;25.99
80676;SHT30;70041;46.088;18.268;2023-07-22T13:46:19;39.17;25.07
80676;SHT30;70041;46.088;18.268;2023-07-22T13:48:44;38.95;25.93
80676;SHT30;70041;46.088;18.268;2023-07-22T13:51:10;39.32;28.21
80676;SHT30;70041;46.088;18.268;2023-07-22T13:53:35;39.73;25.22
80676;SHT30;70041;46.088;18.268;2023-07-22T13:56:01;39.65;26.08
80676;SHT30;70041;46.088;18.268;2023-07-22T13:58:26;39.32;27.25
80676;SHT30;70041;46.088;18.268;2023-07-22T14:00:52;39.25;28.22
80676;SHT30;70041;46.088;18.268;2023-07-22T14:03:18;39.11;25.24
80676;SHT30;70041;46.088;18.268;2023-07-22T14:05:43;38.75;25.73
80676;SHT30;70041;46.088;18.268;2023-07-22T14:08:09;39.69;27.14
80676;SHT30;70041;46.088;18.268;2023-07-22T14:10:34;39.55;24.94
80676;SHT30;70041;46.088;18.268;2023-07-22T14:13:00;39.56;25.35
80676;SHT30;70041;46.088;18.268;2023-07-22T14:15:25;39.56;26.18
80676;SHT30;70041;46.088;18.268;2023-07-22T14:17:51;38.87;26.70
80676;SHT30;70041;46.088;18.268;2023-07-22T14:20:16;38.33;25.38
80676;SHT30;70041;46.088;18.268;2023-07-22T14:22:42;37.69;28.12
80676;SHT30;70041;46.088;18.268;2023-07-22T14:25:08;37.28;29.42
80676;SHT30;70041;46.088;18.268;2023-07-22T14:27:34;37.43;29.67
80676;SHT30;70041;46.088;18.268;2023-07-22T14:30:03;38.30;26.85
80676;SHT30;70041;46.088;18.268;2023-07-22T14:32:31;38.53;27.41
80676;SHT30;70041;46.088;18.268;2023-07-22T14:34:56;38.56;27.95
80676;SHT30;70041;46.088;18.268;2023-07-22T14:37:22;38.10;29.59
80676;SHT30;70041;46.088;18.268;2023-07-22T14:39:48;38.12;28.53
80676;SHT30;70041;46.088;18.268;2023-07-22T14:42:14;38.46;25.14
80676;SHT30;70041;46.088;18.268;2023-07-22T14:44:39;37.54;28.73
80676;SHT30;70041;46.088;18.268;2023-07-22T14:47:05;35.61;30.69
80676;SHT30;70041;46.088;18.268;2023-07-22T14:49:30;34.98;31.82
80676;SHT30;70041;46.088;18.268;2023-07-22T14:51:56;34.93;32.70
80676;SHT30;70041;46.088;18.268;2023-07-22T14:54:21;35.38;31.72
80676;SHT30;70041;46.088;18.268;2023-07-22T14:56:47;35.58;32.67
80676;SHT30;70041;46.088;18.268;2023-07-22T14:59:15;35.28;31.27
80676;SHT30;70041;46.088;18.268;2023-07-22T15:01:41;34.61;30.39
80676;SHT30;70041;46.088;18.268;2023-07-22T15:04:08;34.61;30.81
80676;SHT30;70041;46.088;18.268;2023-07-22T15:06:34;33.86;31.99
80676;SHT30;70041;46.088;18.268;2023-07-22T15:09:03;33.74;35.59
80676;SHT30;70041;46.088;18.268;2023-07-22T15:11:35;33.66;33.06
80676;SHT30;70041;46.088;18.268;2023-07-22T15:14:02;33.45;32.30
80676;SHT30;70041;46.088;18.268;2023-07-22T15:16:27;33.53;34.65
80676;SHT30;70041;46.088;18.268;2023-07-22T15:18:53;33.59;33.31
80676;SHT30;70041;46.088;18.268;2023-07-22T15:21:18;33.53;35.23
80676;SHT30;70041;46.088;18.268;2023-07-22T15:23:43;32.93;35.15